Time;durP1;ratioP1;P1;durP2;ratioP2;P2;SDS_P1;SDS_P2;PMS_P1;PMS_P2;Temp;Humidity;BMP_temperature;BMP_pressure;BME280_temperature;BME280_humidity;BME280_pressure;Samples;Min_cycle;Max_cycle;Signal;HPM_P1;HPM_P2
2022/04/29 00:00:18;;;;;;;5.6;3.5;;;;;;;7.13;75.10059;947.3972;;;;
2022/04/29 00:02:41;;;;;;;4;3.4;;;;;;;7.08;75.625;947.2299;;;;
2022/04/29 00:05:16;;;;;;;5.7;3.5;;;;;;;7.05;75.67676;947.2787;;;;
2022/04/29 00:07:47;;;;;;;4.9;3.8;;;;;;;6.96;76.125;947.2425;;;;
2022/04/29 00:10:15;;;;;;;4;3.5;;;;;;;6.99;75.66797;947.2717;;;;
2022/04/29 00:12:41;;;;;;;8;3.9;;;;;;;6.99;75.84863;947.3103;;;;
2022/04/29 00:15:11;;;;;;;6.5;3.9;;;;;;;7.09;75.45898;947.2787;;;;
2022/04/29 00:17:40;;;;;;;5.5;3.6;;;;;;;7.1;75.24316;947.1674;;;;
2022/04/29 00:20:05;;;;;;;4.4;3.7;;;;;;;6.91;75.80078;947.1902;;;;
2022/04/29 00:22:30;;;;;;;4.6;3.5;;;;;;;6.74;76.4043;947.1541;;;;
2022/04/29 00:24:55;;;;;;;5.8;4.1;;;;;;;6.63;76.92773;947.1824;;;;
2022/04/29 00:27:21;;;;;;;5.2;3.6;;;;;;;6.52;77.51758;947.1389;;;;
2022/04/29 00:29:48;;;;;;;4.8;4.1;;;;;;;6.42;78.17773;947.147;;;;
2022/04/29 00:32:13;;;;;;;4.5;3.9;;;;;;;6.31;78.87012;947.1307;;;;
2022/04/29 00:34:40;;;;;;;13.4;5.3;;;;;;;6.44;78.48828;947.1202;;;;
2022/04/29 00:37:05;;;;;;;5.4;3.8;;;;;;;6.61;77.72656;947.1462;;;;
2022/04/29 00:39:33;;;;;;;5.2;4.1;;;;;;;6.58;77.63281;947.0441;;;;
2022/04/29 00:41:58;;;;;;;6;3.9;;;;;;;6.55;77.5127;947.0825;;;;
2022/04/29 00:44:28;;;;;;;4.9;4.1;;;;;;;6.59;77.32715;947.0641;;;;
2022/04/29 00:46:55;;;;;;;4.3;3.6;;;;;;;6.49;77.66895;947.0491;;;;
2022/04/29 00:49:20;;;;;;;5.3;3.6;;;;;;;6.43;77.97656;947.0231;;;;
2022/04/29 00:51:45;;;;;;;8.5;4.5;;;;;;;6.4;78.06348;947.0363;;;;
2022/04/29 00:54:10;;;;;;;9.5;4.3;;;;;;;6.31;78.53125;946.9288;;;;
2022/04/29 00:56:35;;;;;;;5.4;4;;;;;;;6.07;79.14355;946.8511;;;;
2022/04/29 00:59:00;;;;;;;4.8;3.7;;;;;;;5.85;80.52539;946.8566;;;;
2022/04/29 01:01:25;;;;;;;5.5;3.7;;;;;;;5.82;80.66699;946.7946;;;;
2022/04/29 01:03:53;;;;;;;10.1;4.1;;;;;;;5.83;81.0752;946.8122;;;;
2022/04/29 01:06:18;;;;;;;8.5;4.8;;;;;;;5.77;81.36816;946.8072;;;;
2022/04/29 01:08:46;;;;;;;7.2;4.3;;;;;;;5.89;80.8252;946.8091;;;;
2022/04/29 01:11:11;;;;;;;7.9;4.6;;;;;;;5.99;80.32617;946.7947;;;;
2022/04/29 01:13:38;;;;;;;6.7;4.3;;;;;;;6.06;79.94434;946.7394;;;;
2022/04/29 01:16:03;;;;;;;5.9;4;;;;;;;6.01;80.35254;946.6881;;;;
2022/04/29 01:18:29;;;;;;;7;4.6;;;;;;;5.98;80.31152;946.6139;;;;
2022/04/29 01:20:54;;;;;;;5.6;3.6;;;;;;;5.96;80.10449;946.6408;;;;
2022/04/29 01:24:02;;;;;;;6.5;4.1;;;;;;;5.97;79.7002;946.5588;;;;
2022/04/29 01:26:27;;;;;;;4.7;3.9;;;;;;;5.83;80.2959;946.6589;;;;
2022/04/29 01:28:57;;;;;;;4.5;4;;;;;;;5.69;80.80078;946.6594;;;;
2022/04/29 01:31:22;;;;;;;6.6;4.2;;;;;;;5.68;81.03613;946.5989;;;;
2022/04/29 01:33:55;;;;;;;4.2;3.7;;;;;;;5.81;80.42773;946.6346;;;;
2022/04/29 01:36:27;;;;;;;4.1;3.6;;;;;;;5.72;80.83984;946.5736;;;;
2022/04/29 01:38:56;;;;;;;4.2;3.8;;;;;;;5.7;80.8457;946.6184;;;;
2022/04/29 01:41:21;;;;;;;4.7;3.7;;;;;;;5.76;80.58691;946.6281;;;;
2022/04/29 01:43:51;;;;;;;5.2;3.9;;;;;;;5.81;80.25879;946.5183;;;;
2022/04/29 01:46:16;;;;;;;4.3;3.4;;;;;;;5.93;79.64746;946.5597;;;;
2022/04/29 01:48:48;;;;;;;4.1;3.7;;;;;;;5.8;79.69238;946.5936;;;;
2022/04/29 01:51:15;;;;;;;4.6;3.9;;;;;;;5.72;80.13965;946.632;;;;
2022/04/29 01:53:38;;;;;;;4.9;3.9;;;;;;;5.59;80.6582;946.5916;;;;
2022/04/29 01:56:10;;;;;;;4.9;4;;;;;;;5.46;81.25293;946.5697;;;;
2022/04/29 01:58:37;;;;;;;7.1;4.3;;;;;;;5.41;81.55859;946.6172;;;;
2022/04/29 02:01:01;;;;;;;5;4;;;;;;;5.35;81.98828;946.5687;;;;
2022/04/29 02:03:26;;;;;;;6.4;4.7;;;;;;;5.33;82.32324;946.4937;;;;
2022/04/29 02:06:00;;;;;;;7.1;4.2;;;;;;;5.3;82.30664;946.5432;;;;
2022/04/29 02:08:28;;;;;;;4.3;3.9;;;;;;;5.29;82.34863;946.5605;;;;
2022/04/29 02:10:54;;;;;;;4.5;3.9;;;;;;;5.29;82.31445;946.5386;;;;
2022/04/29 02:13:22;;;;;;;6;3.9;;;;;;;5.38;81.9707;946.4728;;;;
2022/04/29 02:15:55;;;;;;;6.1;4;;;;;;;5.37;81.81152;946.4503;;;;
2022/04/29 02:18:21;;;;;;;4.6;3.9;;;;;;;5.43;81.74219;946.4633;;;;
2022/04/29 02:20:49;;;;;;;5.7;3.9;;;;;;;5.43;81.80078;946.4524;;;;
2022/04/29 02:23:13;;;;;;;5.7;4.2;;;;;;;5.43;81.96777;946.468;;;;
2022/04/29 02:25:38;;;;;;;4.7;4;;;;;;;5.36;82.00098;946.3976;;;;
2022/04/29 02:28:08;;;;;;;5.5;4.1;;;;;;;5.31;82.6582;946.3689;;;;
2022/04/29 02:30:33;;;;;;;4.9;3.9;;;;;;;5.31;82.36523;946.3351;;;;
2022/04/29 02:33:05;;;;;;;5.9;4.2;;;;;;;5.34;82.25586;946.3441;;;;
2022/04/29 02:35:35;;;;;;;5.4;3.8;;;;;;;5.37;81.61914;946.4297;;;;
2022/04/29 02:38:06;;;;;;;5;4;;;;;;;5.31;81.85547;946.3356;;;;
2022/04/29 02:40:31;;;;;;;5.6;4;;;;;;;5.16;82.14355;946.3703;;;;
2022/04/29 02:42:56;;;;;;;5.5;4;;;;;;;5.21;82.29883;946.3132;;;;
2022/04/29 02:45:22;;;;;;;5.7;4.5;;;;;;;5.28;81.87305;946.3621;;;;
2022/04/29 02:47:51;;;;;;;6.4;4.5;;;;;;;5.34;81.36621;946.3608;;;;
2022/04/29 02:50:16;;;;;;;5.5;4;;;;;;;5.18;81.61914;946.2723;;;;
2022/04/29 02:52:48;;;;;;;5.7;4.5;;;;;;;4.98;83.04395;946.2991;;;;
2022/04/29 02:55:15;;;;;;;4.7;4.1;;;;;;;4.95;83.17285;946.2944;;;;
2022/04/29 02:57:44;;;;;;;6.2;4.3;;;;;;;4.98;82.99902;946.2264;;;;
2022/04/29 03:00:09;;;;;;;5.8;4.4;;;;;;;5;82.91211;946.2444;;;;
2022/04/29 03:02:35;;;;;;;7.3;4.5;;;;;;;5;82.59668;946.2271;;;;
2022/04/29 03:09:59;;;;;;;5.1;4.6;;;;;;;4.76;83.78906;946.2628;;;;
2022/04/29 03:12:24;;;;;;;5.7;4.4;;;;;;;4.69;83.91016;946.2764;;;;
2022/04/29 03:14:52;;;;;;;6.1;5;;;;;;;4.68;84.50488;946.2255;;;;
2022/04/29 03:18:20;;;;;;;6;4.7;;;;;;;4.72;84.44629;946.195;;;;
2022/04/29 03:19:42;;;;;;;5.6;4.6;;;;;;;4.67;84.3457;946.1934;;;;
2022/04/29 03:22:11;;;;;;;7.6;5.1;;;;;;;4.58;84.7334;946.1758;;;;
2022/04/29 03:24:36;;;;;;;5.5;4.6;;;;;;;4.61;85.03125;946.0945;;;;
2022/04/29 03:27:02;;;;;;;5.3;4;;;;;;;4.68;84.22363;946.108;;;;
2022/04/29 03:29:27;;;;;;;5.2;4.3;;;;;;;4.74;83.65039;946.0467;;;;
2022/04/29 03:31:57;;;;;;;4.7;4;;;;;;;4.73;83.18652;946.0834;;;;
2022/04/29 03:34:24;;;;;;;5.9;4.5;;;;;;;4.61;83.55762;945.9916;;;;
2022/04/29 03:36:47;;;;;;;8.6;4.6;;;;;;;4.52;84.05762;945.9462;;;;
2022/04/29 03:39:14;;;;;;;6.4;4.7;;;;;;;4.51;84.13477;945.9741;;;;
2022/04/29 03:41:39;;;;;;;4.1;3.7;;;;;;;4.45;84.06641;945.9995;;;;
2022/04/29 03:44:08;;;;;;;5.3;4.3;;;;;;;4.21;85.61719;946.0275;;;;
2022/04/29 03:46:33;;;;;;;6.1;5;;;;;;;4.22;86.21387;945.9528;;;;
2022/04/29 03:51:27;;;;;;;7.5;4.8;;;;;;;4.43;85.19922;945.9964;;;;
2022/04/29 03:53:54;;;;;;;6.6;5.1;;;;;;;4.51;84.47461;945.9846;;;;
2022/04/29 03:56:19;;;;;;;8;4.6;;;;;;;4.48;84.16309;945.9673;;;;
2022/04/29 03:58:48;;;;;;;13.7;5.4;;;;;;;4.33;84.80664;945.9995;;;;
2022/04/29 04:02:43;;;;;;;6.8;4.5;;;;;;;4.28;85.04492;946.0447;;;;
2022/04/29 04:05:10;;;;;;;6.2;4.4;;;;;;;4.12;85.3291;946.0876;;;;
2022/04/29 04:07:45;;;;;;;8;5;;;;;;;4.02;86.3877;946.067;;;;
2022/04/29 04:10:19;;;;;;;7.6;5.4;;;;;;;4.17;86.11523;946.0226;;;;
2022/04/29 04:12:51;;;;;;;5.8;4.5;;;;;;;4.29;85.27344;946.0508;;;;
2022/04/29 04:15:18;;;;;;;5.8;4.4;;;;;;;4.36;84.84766;946.037;;;;
2022/04/29 04:17:50;;;;;;;5.1;4.4;;;;;;;4.37;84.45508;946.0407;;;;
2022/04/29 04:20:21;;;;;;;5.5;4.2;;;;;;;4.26;84.88574;946.0305;;;;
2022/04/29 04:22:52;;;;;;;5.5;4.1;;;;;;;4.2;85.2334;946.093;;;;
2022/04/29 04:25:18;;;;;;;5.3;4.2;;;;;;;4.16;85.86523;946.06;;;;
2022/04/29 04:27:49;;;;;;;6.9;4.8;;;;;;;4.08;86.04199;946.0715;;;;
2022/04/29 04:30:17;;;;;;;10.6;7.5;;;;;;;4.02;86.92871;946.0759;;;;
2022/04/29 04:32:43;;;;;;;15.5;10.9;;;;;;;4.14;86.75;946.1105;;;;
2022/04/29 04:35:17;;;;;;;10.2;7.2;;;;;;;4.2;86.2666;946.1438;;;;
2022/04/29 04:37:49;;;;;;;8.3;5.7;;;;;;;4.21;85.97754;946.1259;;;;
2022/04/29 04:40:13;;;;;;;6.1;4.6;;;;;;;4.24;85.69043;946.2228;;;;
2022/04/29 04:42:44;;;;;;;5.5;4.2;;;;;;;4.32;85.25684;946.122;;;;
2022/04/29 04:45:09;;;;;;;4.7;4.2;;;;;;;4.38;85.26758;946.1445;;;;
2022/04/29 04:47:40;;;;;;;7.3;4.1;;;;;;;4.43;85.62695;946.1671;;;;
2022/04/29 04:50:09;;;;;;;5.3;4.2;;;;;;;4.37;85.52441;946.2205;;;;
2022/04/29 04:52:39;;;;;;;6.7;4.3;;;;;;;4.44;85.29102;946.1735;;;;
2022/04/29 04:55:04;;;;;;;7.9;4.5;;;;;;;4.39;85.53027;946.1973;;;;
2022/04/29 04:57:34;;;;;;;9.4;4.5;;;;;;;4.43;85.18848;946.2206;;;;
2022/04/29 04:59:59;;;;;;;10.5;4.7;;;;;;;4.45;85.11328;946.2199;;;;
2022/04/29 05:02:29;;;;;;;7.4;4.5;;;;;;;4.61;84.65918;946.1465;;;;
2022/04/29 05:04:59;;;;;;;5.9;4.6;;;;;;;4.53;84.30957;946.1778;;;;
2022/04/29 05:07:24;;;;;;;7.4;4.8;;;;;;;4.52;84.39551;946.1607;;;;
2022/04/29 05:09:54;;;;;;;9.6;5.1;;;;;;;4.51;84.39355;946.2092;;;;
2022/04/29 05:12:26;;;;;;;8.2;4.5;;;;;;;4.61;84.61621;946.127;;;;
2022/04/29 05:14:53;;;;;;;7.3;4.4;;;;;;;4.74;84.32813;946.163;;;;
2022/04/29 05:17:18;;;;;;;7.6;4.5;;;;;;;4.86;84.02246;946.1848;;;;
2022/04/29 05:19:47;;;;;;;6.5;4.5;;;;;;;4.87;83.93555;946.1426;;;;
2022/04/29 05:22:12;;;;;;;7.4;4.9;;;;;;;4.94;83.9707;946.1433;;;;
2022/04/29 05:24:37;;;;;;;8;5.2;;;;;;;4.99;84.21973;946.1599;;;;
2022/04/29 05:27:02;;;;;;;7.3;5;;;;;;;5.31;84.31641;946.1646;;;;
2022/04/29 05:29:31;;;;;;;6.3;3.4;;;;;;;6.65;79.48828;946.1376;;;;
2022/04/29 05:31:56;;;;;;;6.6;3.5;;;;;;;8.46;72.5166;946.0533;;;;
2022/04/29 05:34:24;;;;;;;4.3;2.8;;;;;;;8.86;68.38672;946.0273;;;;
2022/04/29 05:36:49;;;;;;;5.3;3;;;;;;;9.39;65.73828;946.0139;;;;
2022/04/29 05:44:09;;;;;;;4.3;2.6;;;;;;;11.16;60.52051;945.9886;;;;
2022/04/29 05:46:42;;;;;;;8.5;3.5;;;;;;;10.85;61.02539;946.0284;;;;
2022/04/29 05:49:12;;;;;;;3.9;2.8;;;;;;;10.94;60.4209;946.0112;;;;
2022/04/29 05:51:44;;;;;;;6.3;3.2;;;;;;;11.63;59.52148;945.9791;;;;
2022/04/29 05:54:09;;;;;;;6.9;3.5;;;;;;;11.8;58.14746;945.96;;;;
2022/04/29 05:56:36;;;;;;;4.5;2.8;;;;;;;11.65;57.625;945.8495;;;;
2022/04/29 05:59:02;;;;;;;4.4;2.8;;;;;;;11.73;57.62402;945.851;;;;
2022/04/29 06:01:30;;;;;;;7.7;3;;;;;;;12.36;57.06445;945.7894;;;;
2022/04/29 06:03:55;;;;;;;3.3;2.4;;;;;;;12.27;55.99805;945.8399;;;;
2022/04/29 06:06:26;;;;;;;4.1;3;;;;;;;11.66;56.70996;945.8106;;;;
2022/04/29 06:08:57;;;;;;;5.5;2.8;;;;;;;11.59;58.0625;945.8155;;;;
2022/04/29 06:11:24;;;;;;;6.1;2.8;;;;;;;11.61;57.36719;945.8058;;;;
2022/04/29 06:13:55;;;;;;;4.9;2.9;;;;;;;11.61;57.53809;945.769;;;;
2022/04/29 06:16:28;;;;;;;2.7;2.4;;;;;;;13.02;53.52344;945.7786;;;;
2022/04/29 06:18:53;;;;;;;4.1;2.8;;;;;;;14.13;50.81543;945.7681;;;;
2022/04/29 06:21:24;;;;;;;2.8;2.3;;;;;;;14.32;48.92676;945.7651;;;;
2022/04/29 06:23:52;;;;;;;4.2;2.7;;;;;;;14.38;49.53223;945.7831;;;;
2022/04/29 06:26:18;;;;;;;2.8;2.3;;;;;;;14.72;48.48633;945.7531;;;;
2022/04/29 06:28:45;;;;;;;3.1;2.8;;;;;;;15.36;47.05664;945.7311;;;;
2022/04/29 06:31:11;;;;;;;5.3;3.1;;;;;;;14.83;48.23438;945.7228;;;;
2022/04/29 06:33:39;;;;;;;6.6;2.4;;;;;;;16.06;44.62305;945.7234;;;;
2022/04/29 06:36:05;;;;;;;4.8;2.9;;;;;;;16.18;44.86621;945.778;;;;
2022/04/29 06:38:34;;;;;;;3.3;2.3;;;;;;;15.25;45.89063;945.7428;;;;
2022/04/29 06:41:02;;;;;;;6;2.7;;;;;;;16.58;44.38574;945.7219;;;;
2022/04/29 06:43:29;;;;;;;3.8;3.3;;;;;;;17.66;42.87207;945.695;;;;
2022/04/29 06:45:57;;;;;;;3.7;2.6;;;;;;;18.02;39.74707;945.69;;;;
2022/04/29 06:48:23;;;;;;;4;2.6;;;;;;;19.37;38.27344;945.7419;;;;
2022/04/29 06:50:51;;;;;;;4.9;2.5;;;;;;;18.59;39.01953;945.6772;;;;
2022/04/29 06:53:16;;;;;;;5.7;3.1;;;;;;;18.86;39.20605;945.61;;;;
2022/04/29 06:55:41;;;;;;;2.6;2.2;;;;;;;17.46;40.32324;945.608;;;;
2022/04/29 06:58:09;;;;;;;2.1;1.9;;;;;;;16.83;42.65137;945.6781;;;;
2022/04/29 07:00:35;;;;;;;2.6;2.4;;;;;;;16.74;43.06055;945.6547;;;;
2022/04/29 07:03:05;;;;;;;3.3;2.4;;;;;;;17.22;42.64258;945.5893;;;;
2022/04/29 07:05:32;;;;;;;3.1;2.2;;;;;;;19.48;39.43555;945.6197;;;;
2022/04/29 07:08:00;;;;;;;8;7.2;;;;;;;20.99;36.38965;945.5269;;;;
2022/04/29 07:10:27;;;;;;;5.1;3.3;;;;;;;21.14;35.45508;945.4749;;;;
2022/04/29 07:12:52;;;;;;;3.3;2.1;;;;;;;20.7;35.0459;945.4728;;;;
2022/04/29 07:15:23;;;;;;;2.6;2;;;;;;;20.62;35.14453;945.4068;;;;
2022/04/29 07:17:50;;;;;;;2.9;2;;;;;;;21.8;34.85254;945.4183;;;;
2022/04/29 07:20:21;;;;;;;2.4;2.2;;;;;;;22.89;32.10742;945.3384;;;;
2022/04/29 07:22:51;;;;;;;2.2;2;;;;;;;24.12;30.73633;945.302;;;;
2022/04/29 07:25:23;;;;;;;2.1;1.9;;;;;;;24.82;29.63965;945.3453;;;;
2022/04/29 07:27:56;;;;;;;6.4;2;;;;;;;24.87;29.29004;945.295;;;;
2022/04/29 07:30:29;;;;;;;2.7;1.8;;;;;;;26.93;27.80176;945.3117;;;;
2022/04/29 07:32:56;;;;;;;2.6;2.1;;;;;;;26.19;26.40625;945.3027;;;;
2022/04/29 07:42:54;;;;;;;4.5;2;;;;;;;27.38;26.68945;945.1778;;;;
2022/04/29 07:45:25;;;;;;;3.8;2.4;;;;;;;27.28;26.16211;945.1445;;;;
2022/04/29 07:47:58;;;;;;;2;1.7;;;;;;;28.03;24.04395;945.05;;;;
2022/04/29 07:50:21;;;;;;;3.3;2.1;;;;;;;29.07;24.58789;945.0264;;;;
2022/04/29 07:52:49;;;;;;;2.3;2;;;;;;;28.07;25.75684;945.0522;;;;
2022/04/29 07:55:20;;;;;;;3.3;2.3;;;;;;;28.71;24.9248;945.0269;;;;
2022/04/29 07:57:45;;;;;;;3;2.3;;;;;;;27.95;26.23633;945.0031;;;;
2022/04/29 08:00:17;;;;;;;2.7;2.1;;;;;;;29.05;25.21777;944.9835;;;;
2022/04/29 08:02:48;;;;;;;2.2;2;;;;;;;28.85;25.40918;944.9543;;;;
2022/04/29 08:05:13;;;;;;;2.4;2.2;;;;;;;29.22;24.67969;944.9301;;;;
2022/04/29 08:07:47;;;;;;;6.2;2.5;;;;;;;28.36;24.73926;944.9227;;;;
2022/04/29 08:10:16;;;;;;;2.5;1.9;;;;;;;29.7;24.62207;944.9095;;;;
2022/04/29 08:12:47;;;;;;;2.5;2.2;;;;;;;30.22;23.57617;944.8625;;;;
2022/04/29 08:15:12;;;;;;;2.3;1.9;;;;;;;29.86;22.98438;944.8736;;;;
2022/04/29 08:17:42;;;;;;;2;1.8;;;;;;;29.23;23.8457;944.8347;;;;
2022/04/29 08:20:16;;;;;;;3.3;2;;;;;;;28.4;24.71777;944.8156;;;;
2022/04/29 08:22:47;;;;;;;2.1;1.9;;;;;;;29.47;23.62012;944.7858;;;;
2022/04/29 08:25:18;;;;;;;2.5;2.2;;;;;;;29.21;25.79785;944.7698;;;;
2022/04/29 08:27:42;;;;;;;3;2;;;;;;;29.61;23.04297;944.8045;;;;
2022/04/29 08:30:13;;;;;;;3.3;1.9;;;;;;;29.37;23.4248;944.7346;;;;
2022/04/29 08:32:43;;;;;;;1.9;1.8;;;;;;;28.75;23.27344;944.7575;;;;
2022/04/29 08:35:09;;;;;;;2.4;1.6;;;;;;;28.9;24.07813;944.7244;;;;
2022/04/29 08:37:34;;;;;;;2;1.8;;;;;;;30.37;21.74512;944.6828;;;;
2022/04/29 08:40:00;;;;;;;2;1.8;;;;;;;30.61;22.16211;944.6264;;;;
2022/04/29 08:42:25;;;;;;;2.2;1.8;;;;;;;30.9;21.1123;944.639;;;;
2022/04/29 08:44:54;;;;;;;1.6;1.5;;;;;;;30.03;22.64746;944.5797;;;;
2022/04/29 08:47:19;;;;;;;1.4;1.3;;;;;;;30.83;21.92285;944.5753;;;;
2022/04/29 08:49:48;;;;;;;2;1.5;;;;;;;30.94;21.52051;944.5413;;;;
2022/04/29 08:52:14;;;;;;;1.5;1.4;;;;;;;30.74;20.99805;944.5574;;;;
2022/04/29 08:59:34;;;;;;;3;1.7;;;;;;;29.33;24.95898;944.4052;;;;
2022/04/29 09:02:00;;;;;;;1.7;1.6;;;;;;;29.64;22.37695;944.3649;;;;
2022/04/29 09:04:32;;;;;;;1.6;1.5;;;;;;;30.34;22.65137;944.3965;;;;
2022/04/29 09:07:01;;;;;;;1.8;1.7;;;;;;;30.28;22.87402;944.3511;;;;
2022/04/29 09:09:28;;;;;;;1.7;1.6;;;;;;;29.35;24.6748;944.2908;;;;
2022/04/29 09:11:53;;;;;;;2;1.8;;;;;;;28.06;25.41211;944.2067;;;;
2022/04/29 09:14:18;;;;;;;2.2;1.7;;;;;;;27.43;26.45605;944.2046;;;;
2022/04/29 09:16:46;;;;;;;1.8;1.7;;;;;;;27.49;26.59082;944.2296;;;;
2022/04/29 09:19:11;;;;;;;2.3;1.7;;;;;;;27.49;26.1748;944.1755;;;;
2022/04/29 09:21:40;;;;;;;2.2;1.8;;;;;;;27.15;26.40332;944.0861;;;;
2022/04/29 09:24:07;;;;;;;2.2;1.7;;;;;;;27.05;26.58691;944.0664;;;;
2022/04/29 09:26:30;;;;;;;2.3;1.9;;;;;;;26.11;29.09863;944.0961;;;;
2022/04/29 09:28:57;;;;;;;2.4;1.7;;;;;;;25.46;29.43457;944.0623;;;;
2022/04/29 09:31:22;;;;;;;1.7;1.6;;;;;;;25.63;28.85449;944.0533;;;;
2022/04/29 09:33:50;;;;;;;4.7;1.8;;;;;;;24.91;30.51855;944.0087;;;;
2022/04/29 09:36:15;;;;;;;2.7;1.5;;;;;;;24.96;29.54297;944.0133;;;;
2022/04/29 09:39:45;;;;;;;2.1;1.8;;;;;;;24.93;28.97461;943.9753;;;;
2022/04/29 09:41:11;;;;;;;1.7;1.6;;;;;;;25.15;28.9541;943.9375;;;;
2022/04/29 09:43:36;;;;;;;1.7;1.6;;;;;;;25.07;30.27051;943.889;;;;
2022/04/29 09:46:06;;;;;;;2.3;1.9;;;;;;;24.35;32.4834;943.8894;;;;
2022/04/29 09:48:31;;;;;;;2.4;1.9;;;;;;;24.46;31.9375;943.7883;;;;
2022/04/29 09:51:00;;;;;;;2.2;1.7;;;;;;;24.02;32.48242;943.8373;;;;
2022/04/29 09:53:25;;;;;;;2;1.7;;;;;;;23.48;35.30078;943.8318;;;;
2022/04/29 09:55:54;;;;;;;1.9;1.6;;;;;;;24;32.55273;943.8157;;;;
2022/04/29 09:58:23;;;;;;;1.8;1.7;;;;;;;23.87;31.56641;943.7804;;;;
2022/04/29 10:00:48;;;;;;;2.5;1.9;;;;;;;23.9;32.55664;943.8005;;;;
2022/04/29 10:03:19;;;;;;;2;1.8;;;;;;;23.73;33.35645;943.7684;;;;
2022/04/29 10:05:48;;;;;;;2.7;2;;;;;;;23.51;32.91602;943.7975;;;;
2022/04/29 10:08:13;;;;;;;2.2;1.8;;;;;;;23.85;33.1416;943.6786;;;;
2022/04/29 10:10:41;;;;;;;2.6;1.7;;;;;;;23.76;33.42871;943.6211;;;;
2022/04/29 10:13:11;;;;;;;2.2;2;;;;;;;23.57;33.87305;943.6376;;;;
2022/04/29 10:15:40;;;;;;;2.3;1.9;;;;;;;23.78;32.6543;943.634;;;;
2022/04/29 10:22:55;;;;;;;2.2;1.7;;;;;;;23.67;32.72852;943.597;;;;
2022/04/29 10:25:20;;;;;;;2.4;1.7;;;;;;;24.14;32.79785;943.6105;;;;
2022/04/29 10:27:47;;;;;;;2.7;2;;;;;;;24.45;31.75977;943.5361;;;;
2022/04/29 10:30:15;;;;;;;2.1;1.7;;;;;;;24.67;31.44531;943.4641;;;;
2022/04/29 10:32:43;;;;;;;2.5;1.8;;;;;;;24.39;32.63965;943.4858;;;;
2022/04/29 10:35:08;;;;;;;2;1.8;;;;;;;24.62;31.20605;943.5095;;;;
2022/04/29 10:37:37;;;;;;;1.8;1.7;;;;;;;24.64;31.19629;943.4364;;;;
2022/04/29 10:39:59;;;;;;;3.1;1.8;;;;;;;24.63;32.05664;943.4531;;;;
2022/04/29 10:42:24;;;;;;;2.3;1.9;;;;;;;24.46;32.02051;943.4158;;;;
2022/04/29 10:44:52;;;;;;;3.9;2.1;;;;;;;24.19;31.69434;943.3622;;;;
2022/04/29 10:47:17;;;;;;;2.2;1.8;;;;;;;24.67;31.91797;943.3636;;;;
2022/04/29 10:49:42;;;;;;;2.4;1.8;;;;;;;25.25;30.44824;943.3592;;;;
2022/04/29 10:52:08;;;;;;;2.5;1.8;;;;;;;25.16;30.74805;943.3844;;;;
2022/04/29 10:54:37;;;;;;;1.9;1.7;;;;;;;25.56;30.8584;943.3635;;;;
2022/04/29 10:57:04;;;;;;;1.9;1.6;;;;;;;25.41;31.01367;943.3308;;;;
2022/04/29 10:59:28;;;;;;;1.8;1.7;;;;;;;25.67;29.31836;943.2394;;;;
2022/04/29 11:01:53;;;;;;;2.6;1.7;;;;;;;26.47;27.68945;943.2445;;;;
2022/04/29 11:04:23;;;;;;;1.8;1.7;;;;;;;27;27.89941;943.1658;;;;
2022/04/29 11:06:53;;;;;;;1.8;1.6;;;;;;;27.02;27.27246;943.0986;;;;
2022/04/29 11:09:18;;;;;;;3;1.7;;;;;;;26.7;27.36035;943.0392;;;;
2022/04/29 11:11:43;;;;;;;1.5;1.4;;;;;;;26.75;28.07422;943.0089;;;;
2022/04/29 11:14:10;;;;;;;1.7;1.6;;;;;;;27.33;26.4375;942.858;;;;
2022/04/29 11:16:35;;;;;;;1.7;1.6;;;;;;;27.56;27.23535;942.8787;;;;
2022/04/29 11:19:04;;;;;;;2.9;1.7;;;;;;;26.55;27.62402;942.9139;;;;
2022/04/29 11:26:25;;;;;;;3.5;1.7;;;;;;;25.12;30.20313;942.8666;;;;
2022/04/29 11:28:50;;;;;;;1.9;1.8;;;;;;;25.06;31.56738;942.8414;;;;
2022/04/29 11:31:17;;;;;;;2.1;1.9;;;;;;;25.62;29.19727;942.7294;;;;
2022/04/29 11:33:42;;;;;;;1.6;1.5;;;;;;;26.06;29.24902;942.7217;;;;
2022/04/29 11:36:07;;;;;;;2.1;1.6;;;;;;;26.09;28.58887;942.7269;;;;
2022/04/29 11:38:36;;;;;;;2.3;1.8;;;;;;;26.14;27.69238;942.7118;;;;
2022/04/29 11:41:01;;;;;;;10;2.5;;;;;;;26.48;29.47754;942.6485;;;;
2022/04/29 11:44:02;;;;;;;4.3;1.7;;;;;;;26.34;28.13184;942.6835;;;;
2022/04/29 11:46:24;;;;;;;2.8;1.7;;;;;;;25.94;29.80957;942.6156;;;;
2022/04/29 11:48:50;;;;;;;2.1;1.6;;;;;;;25.15;30.00391;942.5287;;;;
2022/04/29 11:51:15;;;;;;;1.9;1.7;;;;;;;24.84;29.61816;942.6;;;;
2022/04/29 11:53:48;;;;;;;2.1;1.6;;;;;;;25.43;29.75098;942.579;;;;
2022/04/29 11:56:13;;;;;;;3.7;1.9;;;;;;;25.61;29.18457;942.5698;;;;
2022/04/29 11:58:42;;;;;;;2.2;1.5;;;;;;;25.1;30.87402;942.5519;;;;
2022/04/29 12:01:07;;;;;;;1.9;1.6;;;;;;;25.56;29.83105;942.493;;;;
2022/04/29 12:03:32;;;;;;;2.1;1.6;;;;;;;25.74;30.02051;942.4575;;;;
2022/04/29 12:05:57;;;;;;;3.9;1.6;;;;;;;25.13;31.23047;942.4498;;;;
2022/04/29 12:08:28;;;;;;;2.5;1.6;;;;;;;24.71;29.9043;942.4672;;;;
2022/04/29 12:10:53;;;;;;;1.7;1.6;;;;;;;24.79;30.31055;942.4152;;;;
2022/04/29 12:13:25;;;;;;;1.9;1.5;;;;;;;24.55;30.22266;942.3906;;;;
2022/04/29 12:15:54;;;;;;;30.2;3.7;;;;;;;24.28;31.93652;942.3458;;;;
2022/04/29 12:18:21;;;;;;;2.4;1.6;;;;;;;23.9;31.70898;942.3322;;;;
2022/04/29 12:20:53;;;;;;;3.1;1.7;;;;;;;23.29;31.05469;942.3234;;;;
2022/04/29 12:23:22;;;;;;;2.9;1.6;;;;;;;23.2;31.8584;942.3392;;;;
2022/04/29 12:25:46;;;;;;;1.7;1.6;;;;;;;22.74;33.42285;942.2467;;;;
2022/04/29 12:28:11;;;;;;;2.4;1.8;;;;;;;22.26;33.87988;942.2247;;;;
2022/04/29 12:35:31;;;;;;;2;1.6;;;;;;;22.16;34.62207;942.3215;;;;
2022/04/29 12:37:59;;;;;;;1.9;1.7;;;;;;;22.01;35.31348;942.2353;;;;
2022/04/29 12:40:27;;;;;;;1.9;1.7;;;;;;;21.97;35.00586;942.2444;;;;
2022/04/29 12:42:52;;;;;;;3.1;2;;;;;;;21.96;37.52539;942.3144;;;;
2022/04/29 12:45:24;;;;;;;2.4;1.8;;;;;;;22.04;34.97656;942.2486;;;;
2022/04/29 12:47:54;;;;;;;3.2;1.9;;;;;;;22.08;34.46289;942.2769;;;;
2022/04/29 12:50:23;;;;;;;3.1;2.1;;;;;;;22.01;34.29492;942.2698;;;;
2022/04/29 12:52:52;;;;;;;2.7;1.8;;;;;;;22.17;34.41211;942.1881;;;;
2022/04/29 12:55:17;;;;;;;2;1.8;;;;;;;22.12;34.17383;942.2228;;;;
2022/04/29 12:57:46;;;;;;;4.1;2.2;;;;;;;22.16;33.77832;942.2703;;;;
2022/04/29 13:00:14;;;;;;;2;1.8;;;;;;;21.98;33.37695;942.1907;;;;
2022/04/29 13:02:43;;;;;;;2.3;2;;;;;;;21.92;33.77148;942.2078;;;;
2022/04/29 13:05:08;;;;;;;2.6;1.8;;;;;;;21.83;33.72949;942.2676;;;;
2022/04/29 13:07:42;;;;;;;3;2;;;;;;;21.76;34.80273;942.2378;;;;
2022/04/29 13:10:14;;;;;;;2.4;2.2;;;;;;;21.18;36.63965;942.2833;;;;
2022/04/29 13:12:38;;;;;;;2.9;1.9;;;;;;;20.88;36.49805;942.2742;;;;
2022/04/29 13:15:07;;;;;;;2.8;2;;;;;;;20.87;36.47363;942.2673;;;;
2022/04/29 13:17:32;;;;;;;2.7;1.9;;;;;;;20.5;35.97559;942.2023;;;;
2022/04/29 13:20:00;;;;;;;3.3;1.9;;;;;;;20.28;37.28906;942.2592;;;;
2022/04/29 13:22:25;;;;;;;2.1;1.9;;;;;;;20.27;37.00781;942.2311;;;;
2022/04/29 13:24:51;;;;;;;2.3;2.1;;;;;;;20.3;36.28613;942.2371;;;;
2022/04/29 13:27:55;;;;;;;3.2;2;;;;;;;20.08;37.08594;942.1864;;;;
2022/04/29 13:30:23;;;;;;;3;2.1;;;;;;;19.96;37.6123;942.1805;;;;
2022/04/29 13:32:48;;;;;;;2.7;2;;;;;;;20.14;37.60352;942.1447;;;;
2022/04/29 13:35:18;;;;;;;2.2;2;;;;;;;20.07;37.01367;942.0678;;;;
2022/04/29 13:37:48;;;;;;;2.3;2;;;;;;;20.18;37.15332;942.1097;;;;
2022/04/29 13:40:18;;;;;;;3.4;2.1;;;;;;;20.27;36.9502;942.134;;;;
2022/04/29 13:42:49;;;;;;;2.9;1.9;;;;;;;20.52;35.38184;942.0837;;;;
2022/04/29 13:45:16;;;;;;;2.2;1.9;;;;;;;20.62;35.39063;942.0677;;;;
2022/04/29 13:47:46;;;;;;;3.3;1.9;;;;;;;20.61;37.80762;942.0122;;;;
2022/04/29 13:50:17;;;;;;;2.3;1.8;;;;;;;20.91;35.79883;942.0323;;;;
2022/04/29 13:55:09;;;;;;;2.3;2.1;;;;;;;21.03;35.39941;941.9649;;;;
2022/04/29 13:58:07;;;;;;;2.4;1.9;;;;;;;21.17;35.15332;941.9467;;;;
2022/04/29 14:00:35;;;;;;;2.4;2.2;;;;;;;21.13;35.34863;941.9462;;;;
2022/04/29 14:03:02;;;;;;;2.1;1.9;;;;;;;20.92;36.75977;941.9373;;;;
2022/04/29 14:05:29;;;;;;;2.9;2;;;;;;;20.99;35.03418;941.8311;;;;
2022/04/29 14:07:59;;;;;;;2.2;1.9;;;;;;;20.8;36.36328;941.9334;;;;
2022/04/29 14:10:30;;;;;;;2.7;2;;;;;;;20.79;36.46875;941.8267;;;;
2022/04/29 14:12:58;;;;;;;3.2;2.1;;;;;;;20.75;36.3584;941.8886;;;;
2022/04/29 14:15:23;;;;;;;3.8;1.9;;;;;;;20.83;36.4707;941.8398;;;;
2022/04/29 14:17:53;;;;;;;2.5;1.9;;;;;;;20.91;36.3252;941.808;;;;
2022/04/29 14:20:18;;;;;;;2.2;1.8;;;;;;;20.94;35.77832;941.8074;;;;
2022/04/29 14:22:47;;;;;;;2.9;2.1;;;;;;;20.9;36.94434;941.7451;;;;
2022/04/29 14:25:18;;;;;;;2.3;1.9;;;;;;;20.79;37.15723;941.64;;;;
2022/04/29 14:27:49;;;;;;;2.6;1.7;;;;;;;20.79;37.2041;941.7596;;;;
2022/04/29 14:30:14;;;;;;;2.3;1.7;;;;;;;20.8;35.70898;941.6719;;;;
2022/04/29 14:32:45;;;;;;;4.4;1.8;;;;;;;20.67;35.37109;941.6395;;;;
2022/04/29 14:35:17;;;;;;;2;1.8;;;;;;;20.56;36.21484;941.6531;;;;
2022/04/29 14:37:50;;;;;;;2.5;2.1;;;;;;;20.51;35.94238;941.6116;;;;
2022/04/29 14:40:14;;;;;;;3.6;1.7;;;;;;;20.4;36.33008;941.5739;;;;
2022/04/29 14:42:44;;;;;;;3;2.1;;;;;;;20.37;35.98926;941.5544;;;;
2022/04/29 14:45:16;;;;;;;2.5;1.8;;;;;;;20.38;36.26953;941.623;;;;
2022/04/29 14:47:41;;;;;;;1.7;1.6;;;;;;;20.61;35.58789;941.5897;;;;
2022/04/29 14:50:12;;;;;;;1.8;1.7;;;;;;;20.5;35.92969;941.61;;;;
2022/04/29 14:52:43;;;;;;;2.5;2;;;;;;;20.57;35.32715;941.573;;;;
2022/04/29 14:55:16;;;;;;;2;1.6;;;;;;;20.24;36.28223;941.538;;;;
2022/04/29 14:57:41;;;;;;;2.4;1.8;;;;;;;20.44;35.88965;941.5331;;;;
2022/04/29 15:00:13;;;;;;;2.5;1.9;;;;;;;20.59;35.52832;941.5425;;;;
2022/04/29 15:02:37;;;;;;;3.1;2;;;;;;;20.76;34.85156;941.4238;;;;
2022/04/29 15:05:14;;;;;;;2.1;1.9;;;;;;;20.69;35.69922;941.555;;;;
2022/04/29 15:07:46;;;;;;;3.2;1.9;;;;;;;20.58;35.06055;941.5199;;;;
2022/04/29 15:17:45;;;;;;;2.6;2.1;;;;;;;20.34;35.66016;941.373;;;;
2022/04/29 15:20:16;;;;;;;2.4;1.7;;;;;;;20.24;36.48047;941.3622;;;;
2022/04/29 15:22:45;;;;;;;2.4;1.8;;;;;;;20.06;37.00195;941.4073;;;;
2022/04/29 15:25:19;;;;;;;2.3;2;;;;;;;20.04;36.5332;941.4005;;;;
2022/04/29 15:27:43;;;;;;;3;1.9;;;;;;;20.14;37.08984;941.4476;;;;